map of KNSI home
KNSI - Airport
Location
City:  San Nicolas Island, California, United States
Name:San Nicolas Island NOLF Airport
ICAO:KNSI
FAA LID:NSI

Details
Type:Airport (Airfield)
Use:Military
Latitude:33°14'23"N (33.239783)
Longitude:119°27'30"W (-119.458202)
Datum:WGS 1984
Elevation:506 ft (154 m)
Variation:12.06°E (WMM2015 magnetic declination)
-0.08° annual change
Runways:1
Longest:10002 × 200 ft (3049 × 61 m), paved

Time
Time Zone:UTC-8 (DST-7)
Local Time:

Weather
METAR:KNSI 152057Z AUTO 20006KT 10SM CLR 24/M13 A3008 RMK AO2 SLP180 T02391133 58025 $

Related Locations
Nearby:
Farthest:ZSE: 11553 mi / 18593 km
St-Pierre (St-Pierre de la Réunion) [Pierrefonds], RE

Find:

   beyond  
but within

Other Information
Maps:
NOTAMs:
Links:
Sources:

  
flag of United States
flag of California
  

Airport Diagram

Airport diagram for KNSI

Airport diagram PDF

Sectional Chart

Flight Planning
at skyvector.com

Satellite Image

Google Maps Satellite view

 

Copyright © 2004-2017 Karl L. Swartz. All rights reserved.
The Great Circle Mapper name and logo are trademarks of the Great Circle Mapper.
All other trademarks mentioned herein belong to their respective owners.
Please see credits for attibutions and further copyright information.

  Follow gcmap on Facebook Follow gcmap on Twitter Follow gcmap on Google+ GCmap on LinkedIn

hCard Microformat

Geo Microformat